sensor_id;sensor_type;location;lat;lon;timestamp;P1;durP1;ratioP1;P2;durP2;ratioP2
20729;SDS011;10526;50.850;12.928;2023-12-07T00:01:53;34.22;;;19.85;;
20729;SDS011;10526;50.850;12.928;2023-12-07T00:06:15;29.52;;;16.05;;
20729;SDS011;10526;50.850;12.928;2023-12-07T00:10:37;32.88;;;19.60;;
20729;SDS011;10526;50.850;12.928;2023-12-07T00:15:00;31.98;;;18.42;;
20729;SDS011;10526;50.850;12.928;2023-12-07T00:19:22;34.50;;;18.58;;
20729;SDS011;10526;50.850;12.928;2023-12-07T00:23:44;35.38;;;19.95;;
20729;SDS011;10526;50.850;12.928;2023-12-07T00:28:06;28.10;;;17.40;;
20729;SDS011;10526;50.850;12.928;2023-12-07T00:32:28;30.02;;;17.80;;
20729;SDS011;10526;50.850;12.928;2023-12-07T00:36:50;32.72;;;17.00;;
20729;SDS011;10526;50.850;12.928;2023-12-07T00:41:12;35.50;;;20.50;;
20729;SDS011;10526;50.850;12.928;2023-12-07T00:45:34;31.85;;;18.17;;
20729;SDS011;10526;50.850;12.928;2023-12-07T00:49:57;33.65;;;18.40;;
20729;SDS011;10526;50.850;12.928;2023-12-07T00:54:20;31.08;;;17.92;;
20729;SDS011;10526;50.850;12.928;2023-12-07T00:58:42;36.80;;;20.23;;
20729;SDS011;10526;50.850;12.928;2023-12-07T01:03:04;33.88;;;18.95;;
20729;SDS011;10526;50.850;12.928;2023-12-07T01:07:27;31.58;;;16.52;;
20729;SDS011;10526;50.850;12.928;2023-12-07T01:11:49;33.55;;;19.02;;
20729;SDS011;10526;50.850;12.928;2023-12-07T01:16:12;33.75;;;18.48;;
20729;SDS011;10526;50.850;12.928;2023-12-07T01:20:34;35.50;;;19.45;;
20729;SDS011;10526;50.850;12.928;2023-12-07T01:24:56;32.63;;;18.60;;
20729;SDS011;10526;50.850;12.928;2023-12-07T01:29:18;26.55;;;14.55;;
20729;SDS011;10526;50.850;12.928;2023-12-07T01:33:41;33.33;;;18.17;;
20729;SDS011;10526;50.850;12.928;2023-12-07T01:38:03;35.20;;;18.20;;
20729;SDS011;10526;50.850;12.928;2023-12-07T01:42:25;33.70;;;18.88;;
20729;SDS011;10526;50.850;12.928;2023-12-07T01:46:47;34.08;;;18.38;;
20729;SDS011;10526;50.850;12.928;2023-12-07T01:51:10;34.25;;;19.00;;
20729;SDS011;10526;50.850;12.928;2023-12-07T01:55:33;32.53;;;17.85;;
20729;SDS011;10526;50.850;12.928;2023-12-07T01:59:55;33.45;;;18.25;;
20729;SDS011;10526;50.850;12.928;2023-12-07T02:04:17;33.17;;;18.58;;
20729;SDS011;10526;50.850;12.928;2023-12-07T02:08:40;33.30;;;19.33;;
20729;SDS011;10526;50.850;12.928;2023-12-07T02:13:03;32.25;;;17.67;;
20729;SDS011;10526;50.850;12.928;2023-12-07T02:22:10;33.60;;;18.10;;
20729;SDS011;10526;50.850;12.928;2023-12-07T02:26:39;31.65;;;17.05;;
20729;SDS011;10526;50.850;12.928;2023-12-07T02:31:01;33.65;;;18.85;;
20729;SDS011;10526;50.850;12.928;2023-12-07T02:35:24;29.17;;;16.38;;
20729;SDS011;10526;50.850;12.928;2023-12-07T02:39:47;32.33;;;18.85;;
20729;SDS011;10526;50.850;12.928;2023-12-07T02:44:11;31.85;;;16.95;;
20729;SDS011;10526;50.850;12.928;2023-12-07T02:48:33;29.45;;;16.65;;
20729;SDS011;10526;50.850;12.928;2023-12-07T02:52:55;28.17;;;15.80;;
20729;SDS011;10526;50.850;12.928;2023-12-07T02:57:18;33.13;;;17.80;;
20729;SDS011;10526;50.850;12.928;2023-12-07T03:01:40;33.95;;;18.85;;
20729;SDS011;10526;50.850;12.928;2023-12-07T03:06:02;31.83;;;18.27;;
20729;SDS011;10526;50.850;12.928;2023-12-07T03:10:24;34.33;;;18.90;;
20729;SDS011;10526;50.850;12.928;2023-12-07T03:14:46;35.13;;;18.63;;
20729;SDS011;10526;50.850;12.928;2023-12-07T03:19:08;32.92;;;18.20;;
20729;SDS011;10526;50.850;12.928;2023-12-07T03:23:30;38.85;;;20.23;;
20729;SDS011;10526;50.850;12.928;2023-12-07T03:27:52;41.38;;;20.58;;
20729;SDS011;10526;50.850;12.928;2023-12-07T03:32:15;33.10;;;18.17;;
20729;SDS011;10526;50.850;12.928;2023-12-07T03:36:37;42.17;;;19.77;;
20729;SDS011;10526;50.850;12.928;2023-12-07T03:41:00;35.17;;;18.98;;
20729;SDS011;10526;50.850;12.928;2023-12-07T03:45:22;37.33;;;19.58;;
20729;SDS011;10526;50.850;12.928;2023-12-07T03:49:45;32.97;;;19.23;;
20729;SDS011;10526;50.850;12.928;2023-12-07T03:54:07;35.88;;;19.83;;
20729;SDS011;10526;50.850;12.928;2023-12-07T03:58:29;35.00;;;18.50;;
20729;SDS011;10526;50.850;12.928;2023-12-07T04:02:51;39.80;;;21.25;;
20729;SDS011;10526;50.850;12.928;2023-12-07T04:07:13;39.47;;;21.58;;
20729;SDS011;10526;50.850;12.928;2023-12-07T04:11:36;35.10;;;18.70;;
20729;SDS011;10526;50.850;12.928;2023-12-07T04:15:58;32.42;;;19.13;;
20729;SDS011;10526;50.850;12.928;2023-12-07T04:20:20;48.83;;;23.63;;
20729;SDS011;10526;50.850;12.928;2023-12-07T04:24:42;35.53;;;18.98;;
20729;SDS011;10526;50.850;12.928;2023-12-07T04:29:05;38.13;;;19.77;;
20729;SDS011;10526;50.850;12.928;2023-12-07T04:33:27;35.15;;;19.88;;
20729;SDS011;10526;50.850;12.928;2023-12-07T04:37:50;35.50;;;19.20;;
20729;SDS011;10526;50.850;12.928;2023-12-07T04:42:12;36.55;;;17.88;;
20729;SDS011;10526;50.850;12.928;2023-12-07T04:46:34;37.25;;;19.17;;
20729;SDS011;10526;50.850;12.928;2023-12-07T04:50:57;37.75;;;19.15;;
20729;SDS011;10526;50.850;12.928;2023-12-07T04:55:19;41.70;;;20.85;;
20729;SDS011;10526;50.850;12.928;2023-12-07T04:59:41;33.65;;;19.10;;
20729;SDS011;10526;50.850;12.928;2023-12-07T05:04:08;34.90;;;18.15;;
20729;SDS011;10526;50.850;12.928;2023-12-07T05:08:30;41.85;;;19.80;;
20729;SDS011;10526;50.850;12.928;2023-12-07T05:12:52;31.63;;;18.30;;
20729;SDS011;10526;50.850;12.928;2023-12-07T05:17:14;36.85;;;20.13;;
20729;SDS011;10526;50.850;12.928;2023-12-07T05:21:37;31.95;;;18.63;;
20729;SDS011;10526;50.850;12.928;2023-12-07T05:25:59;31.02;;;15.90;;
20729;SDS011;10526;50.850;12.928;2023-12-07T05:30:21;34.42;;;18.20;;
20729;SDS011;10526;50.850;12.928;2023-12-07T05:34:43;31.20;;;16.60;;
20729;SDS011;10526;50.850;12.928;2023-12-07T05:39:05;30.67;;;16.80;;
20729;SDS011;10526;50.850;12.928;2023-12-07T05:43:28;30.23;;;16.25;;
20729;SDS011;10526;50.850;12.928;2023-12-07T05:47:50;28.75;;;15.40;;
20729;SDS011;10526;50.850;12.928;2023-12-07T05:52:13;29.30;;;15.98;;
20729;SDS011;10526;50.850;12.928;2023-12-07T05:56:35;30.45;;;16.85;;
20729;SDS011;10526;50.850;12.928;2023-12-07T06:00:57;26.70;;;14.90;;
20729;SDS011;10526;50.850;12.928;2023-12-07T06:05:22;26.80;;;14.82;;
20729;SDS011;10526;50.850;12.928;2023-12-07T06:09:44;26.08;;;13.98;;
20729;SDS011;10526;50.850;12.928;2023-12-07T06:14:07;25.77;;;15.00;;
20729;SDS011;10526;50.850;12.928;2023-12-07T06:18:29;30.70;;;16.08;;
20729;SDS011;10526;50.850;12.928;2023-12-07T06:22:51;29.63;;;16.20;;
20729;SDS011;10526;50.850;12.928;2023-12-07T06:27:13;29.80;;;15.90;;
20729;SDS011;10526;50.850;12.928;2023-12-07T06:31:35;29.75;;;16.42;;
20729;SDS011;10526;50.850;12.928;2023-12-07T06:35:57;26.13;;;14.73;;
20729;SDS011;10526;50.850;12.928;2023-12-07T06:40:19;32.05;;;16.85;;
20729;SDS011;10526;50.850;12.928;2023-12-07T06:44:48;32.60;;;16.13;;
20729;SDS011;10526;50.850;12.928;2023-12-07T06:49:10;28.65;;;15.85;;
20729;SDS011;10526;50.850;12.928;2023-12-07T06:53:34;29.70;;;15.25;;
20729;SDS011;10526;50.850;12.928;2023-12-07T06:57:56;28.02;;;14.63;;
20729;SDS011;10526;50.850;12.928;2023-12-07T07:02:19;29.98;;;16.58;;
20729;SDS011;10526;50.850;12.928;2023-12-07T07:06:41;31.27;;;15.40;;
20729;SDS011;10526;50.850;12.928;2023-12-07T07:11:08;31.58;;;15.95;;
20729;SDS011;10526;50.850;12.928;2023-12-07T07:15:35;31.05;;;16.38;;
20729;SDS011;10526;50.850;12.928;2023-12-07T07:19:58;28.85;;;15.73;;
20729;SDS011;10526;50.850;12.928;2023-12-07T07:24:20;34.00;;;15.90;;
20729;SDS011;10526;50.850;12.928;2023-12-07T07:28:42;30.67;;;15.05;;
20729;SDS011;10526;50.850;12.928;2023-12-07T07:33:05;29.77;;;16.77;;
20729;SDS011;10526;50.850;12.928;2023-12-07T07:37:28;32.28;;;17.27;;
20729;SDS011;10526;50.850;12.928;2023-12-07T07:41:50;33.55;;;15.90;;
20729;SDS011;10526;50.850;12.928;2023-12-07T07:46:15;30.88;;;17.80;;
20729;SDS011;10526;50.850;12.928;2023-12-07T07:50:37;30.98;;;16.38;;
20729;SDS011;10526;50.850;12.928;2023-12-07T07:55:00;35.42;;;17.55;;
20729;SDS011;10526;50.850;12.928;2023-12-07T07:59:24;31.83;;;15.85;;
20729;SDS011;10526;50.850;12.928;2023-12-07T08:03:47;28.45;;;15.63;;
20729;SDS011;10526;50.850;12.928;2023-12-07T08:08:09;31.08;;;16.85;;
20729;SDS011;10526;50.850;12.928;2023-12-07T08:12:32;30.98;;;17.40;;
20729;SDS011;10526;50.850;12.928;2023-12-07T08:16:54;29.30;;;16.42;;
20729;SDS011;10526;50.850;12.928;2023-12-07T08:21:23;31.02;;;17.60;;
20729;SDS011;10526;50.850;12.928;2023-12-07T08:25:51;30.15;;;16.30;;
20729;SDS011;10526;50.850;12.928;2023-12-07T08:30:13;27.67;;;16.02;;
20729;SDS011;10526;50.850;12.928;2023-12-07T08:34:35;32.60;;;16.67;;
20729;SDS011;10526;50.850;12.928;2023-12-07T08:38:59;28.58;;;15.73;;
20729;SDS011;10526;50.850;12.928;2023-12-07T08:43:21;34.65;;;17.88;;
20729;SDS011;10526;50.850;12.928;2023-12-07T08:47:44;30.70;;;16.33;;
20729;SDS011;10526;50.850;12.928;2023-12-07T08:52:06;31.25;;;16.55;;
20729;SDS011;10526;50.850;12.928;2023-12-07T08:56:48;32.55;;;16.52;;
20729;SDS011;10526;50.850;12.928;2023-12-07T09:01:11;29.15;;;15.07;;
20729;SDS011;10526;50.850;12.928;2023-12-07T09:05:50;25.15;;;14.95;;
20729;SDS011;10526;50.850;12.928;2023-12-07T09:10:13;28.52;;;15.13;;
20729;SDS011;10526;50.850;12.928;2023-12-07T09:14:35;28.00;;;14.70;;
20729;SDS011;10526;50.850;12.928;2023-12-07T09:18:59;31.17;;;14.90;;
20729;SDS011;10526;50.850;12.928;2023-12-07T09:23:22;29.05;;;14.63;;
20729;SDS011;10526;50.850;12.928;2023-12-07T09:27:44;26.48;;;14.65;;
20729;SDS011;10526;50.850;12.928;2023-12-07T09:32:07;27.42;;;14.80;;
20729;SDS011;10526;50.850;12.928;2023-12-07T09:36:29;28.08;;;15.65;;
20729;SDS011;10526;50.850;12.928;2023-12-07T09:40:54;26.20;;;14.70;;
20729;SDS011;10526;50.850;12.928;2023-12-07T09:45:17;28.35;;;15.48;;
20729;SDS011;10526;50.850;12.928;2023-12-07T09:49:41;26.27;;;14.25;;
20729;SDS011;10526;50.850;12.928;2023-12-07T09:54:03;31.30;;;14.88;;
20729;SDS011;10526;50.850;12.928;2023-12-07T09:58:27;25.17;;;14.32;;
20729;SDS011;10526;50.850;12.928;2023-12-07T10:03:00;24.90;;;13.48;;
20729;SDS011;10526;50.850;12.928;2023-12-07T10:07:34;26.33;;;14.38;;
20729;SDS011;10526;50.850;12.928;2023-12-07T10:12:17;23.55;;;12.65;;
20729;SDS011;10526;50.850;12.928;2023-12-07T10:16:53;27.00;;;14.32;;
20729;SDS011;10526;50.850;12.928;2023-12-07T10:21:23;28.15;;;13.45;;
20729;SDS011;10526;50.850;12.928;2023-12-07T10:25:53;23.67;;;13.73;;
20729;SDS011;10526;50.850;12.928;2023-12-07T10:30:16;23.75;;;13.18;;
20729;SDS011;10526;50.850;12.928;2023-12-07T10:34:42;25.25;;;13.82;;
20729;SDS011;10526;50.850;12.928;2023-12-07T10:39:04;27.15;;;14.60;;
20729;SDS011;10526;50.850;12.928;2023-12-07T10:43:36;25.25;;;13.40;;
20729;SDS011;10526;50.850;12.928;2023-12-07T10:48:03;23.75;;;13.77;;
20729;SDS011;10526;50.850;12.928;2023-12-07T10:52:31;26.58;;;14.98;;
20729;SDS011;10526;50.850;12.928;2023-12-07T10:56:56;24.23;;;13.38;;
20729;SDS011;10526;50.850;12.928;2023-12-07T11:01:23;24.77;;;13.68;;
20729;SDS011;10526;50.850;12.928;2023-12-07T11:05:47;26.73;;;13.60;;
20729;SDS011;10526;50.850;12.928;2023-12-07T11:10:31;23.13;;;13.07;;
20729;SDS011;10526;50.850;12.928;2023-12-07T11:15:05;26.35;;;13.30;;
20729;SDS011;10526;50.850;12.928;2023-12-07T11:24:01;22.42;;;12.80;;
20729;SDS011;10526;50.850;12.928;2023-12-07T11:28:35;22.17;;;12.88;;
20729;SDS011;10526;50.850;12.928;2023-12-07T11:33:00;22.95;;;12.60;;
20729;SDS011;10526;50.850;12.928;2023-12-07T11:37:25;25.33;;;13.25;;
20729;SDS011;10526;50.850;12.928;2023-12-07T11:42:27;25.10;;;13.23;;
20729;SDS011;10526;50.850;12.928;2023-12-07T11:46:51;23.00;;;12.95;;
20729;SDS011;10526;50.850;12.928;2023-12-07T11:51:13;23.55;;;12.88;;
20729;SDS011;10526;50.850;12.928;2023-12-07T11:55:35;22.02;;;12.68;;
20729;SDS011;10526;50.850;12.928;2023-12-07T11:59:57;24.88;;;12.95;;
20729;SDS011;10526;50.850;12.928;2023-12-07T12:04:23;25.80;;;13.82;;
20729;SDS011;10526;50.850;12.928;2023-12-07T12:08:46;24.15;;;12.75;;
20729;SDS011;10526;50.850;12.928;2023-12-07T12:13:08;26.25;;;13.48;;
20729;SDS011;10526;50.850;12.928;2023-12-07T12:17:30;21.92;;;12.65;;
20729;SDS011;10526;50.850;12.928;2023-12-07T12:21:54;24.40;;;13.32;;
20729;SDS011;10526;50.850;12.928;2023-12-07T12:26:16;25.85;;;13.88;;
20729;SDS011;10526;50.850;12.928;2023-12-07T12:30:39;24.40;;;12.50;;
20729;SDS011;10526;50.850;12.928;2023-12-07T12:35:01;22.50;;;12.77;;
20729;SDS011;10526;50.850;12.928;2023-12-07T12:39:28;26.38;;;13.73;;
20729;SDS011;10526;50.850;12.928;2023-12-07T12:43:54;23.45;;;13.52;;
20729;SDS011;10526;50.850;12.928;2023-12-07T12:48:17;27.63;;;13.70;;
20729;SDS011;10526;50.850;12.928;2023-12-07T12:52:40;25.60;;;12.55;;
20729;SDS011;10526;50.850;12.928;2023-12-07T12:57:02;25.67;;;13.50;;
20729;SDS011;10526;50.850;12.928;2023-12-07T13:01:27;22.08;;;12.43;;
20729;SDS011;10526;50.850;12.928;2023-12-07T13:05:50;23.17;;;13.82;;
20729;SDS011;10526;50.850;12.928;2023-12-07T13:10:12;24.02;;;14.02;;
20729;SDS011;10526;50.850;12.928;2023-12-07T13:14:34;22.17;;;12.98;;
20729;SDS011;10526;50.850;12.928;2023-12-07T13:19:00;24.50;;;12.85;;
20729;SDS011;10526;50.850;12.928;2023-12-07T13:23:22;25.80;;;13.27;;
20729;SDS011;10526;50.850;12.928;2023-12-07T13:27:44;27.35;;;14.05;;
20729;SDS011;10526;50.850;12.928;2023-12-07T13:32:06;25.25;;;12.60;;
20729;SDS011;10526;50.850;12.928;2023-12-07T13:36:28;26.85;;;14.48;;
20729;SDS011;10526;50.850;12.928;2023-12-07T13:40:53;26.90;;;14.35;;
20729;SDS011;10526;50.850;12.928;2023-12-07T13:45:14;25.23;;;13.70;;
20729;SDS011;10526;50.850;12.928;2023-12-07T13:49:37;26.60;;;14.32;;
20729;SDS011;10526;50.850;12.928;2023-12-07T13:53:59;27.00;;;14.45;;
20729;SDS011;10526;50.850;12.928;2023-12-07T13:58:21;25.02;;;13.23;;
20729;SDS011;10526;50.850;12.928;2023-12-07T14:02:43;24.58;;;13.25;;
20729;SDS011;10526;50.850;12.928;2023-12-07T14:07:06;25.73;;;13.02;;
20729;SDS011;10526;50.850;12.928;2023-12-07T14:11:34;24.15;;;13.13;;
20729;SDS011;10526;50.850;12.928;2023-12-07T14:15:56;22.52;;;12.88;;
20729;SDS011;10526;50.850;12.928;2023-12-07T14:20:29;26.33;;;13.63;;
20729;SDS011;10526;50.850;12.928;2023-12-07T14:25:11;26.65;;;14.50;;
20729;SDS011;10526;50.850;12.928;2023-12-07T14:29:34;28.15;;;13.90;;
20729;SDS011;10526;50.850;12.928;2023-12-07T14:33:56;24.17;;;13.38;;
20729;SDS011;10526;50.850;12.928;2023-12-07T14:38:18;26.77;;;14.07;;
20729;SDS011;10526;50.850;12.928;2023-12-07T14:42:41;27.08;;;14.18;;
20729;SDS011;10526;50.850;12.928;2023-12-07T14:47:03;25.83;;;13.82;;
20729;SDS011;10526;50.850;12.928;2023-12-07T14:51:25;30.70;;;15.55;;
20729;SDS011;10526;50.850;12.928;2023-12-07T14:55:48;27.30;;;15.48;;
20729;SDS011;10526;50.850;12.928;2023-12-07T15:00:12;28.75;;;16.02;;
20729;SDS011;10526;50.850;12.928;2023-12-07T15:04:34;29.48;;;15.40;;
20729;SDS011;10526;50.850;12.928;2023-12-07T15:08:57;36.08;;;17.15;;
20729;SDS011;10526;50.850;12.928;2023-12-07T15:13:20;35.15;;;16.63;;
20729;SDS011;10526;50.850;12.928;2023-12-07T15:17:42;29.48;;;15.45;;
20729;SDS011;10526;50.850;12.928;2023-12-07T15:22:07;27.48;;;15.80;;
20729;SDS011;10526;50.850;12.928;2023-12-07T15:26:32;32.28;;;16.25;;
20729;SDS011;10526;50.850;12.928;2023-12-07T15:30:55;30.67;;;16.25;;
20729;SDS011;10526;50.850;12.928;2023-12-07T15:35:17;31.95;;;17.73;;
20729;SDS011;10526;50.850;12.928;2023-12-07T15:39:39;29.70;;;16.48;;
20729;SDS011;10526;50.850;12.928;2023-12-07T15:44:02;32.30;;;18.48;;
20729;SDS011;10526;50.850;12.928;2023-12-07T15:48:24;32.38;;;17.10;;
20729;SDS011;10526;50.850;12.928;2023-12-07T15:52:46;33.50;;;17.83;;
20729;SDS011;10526;50.850;12.928;2023-12-07T15:57:09;35.97;;;18.10;;
20729;SDS011;10526;50.850;12.928;2023-12-07T16:01:32;33.05;;;17.38;;
20729;SDS011;10526;50.850;12.928;2023-12-07T16:05:54;36.90;;;18.23;;
20729;SDS011;10526;50.850;12.928;2023-12-07T16:10:16;34.17;;;18.20;;
20729;SDS011;10526;50.850;12.928;2023-12-07T16:14:41;34.55;;;18.63;;
20729;SDS011;10526;50.850;12.928;2023-12-07T16:19:03;32.13;;;17.42;;
20729;SDS011;10526;50.850;12.928;2023-12-07T16:23:26;30.88;;;15.80;;
20729;SDS011;10526;50.850;12.928;2023-12-07T16:27:48;35.95;;;18.25;;
20729;SDS011;10526;50.850;12.928;2023-12-07T16:32:10;35.45;;;18.27;;
20729;SDS011;10526;50.850;12.928;2023-12-07T16:36:32;34.92;;;19.15;;
20729;SDS011;10526;50.850;12.928;2023-12-07T16:40:55;34.78;;;18.95;;
20729;SDS011;10526;50.850;12.928;2023-12-07T16:45:17;35.35;;;19.92;;
20729;SDS011;10526;50.850;12.928;2023-12-07T16:49:39;35.78;;;18.95;;
20729;SDS011;10526;50.850;12.928;2023-12-07T16:54:02;34.55;;;16.73;;
20729;SDS011;10526;50.850;12.928;2023-12-07T16:58:25;34.25;;;18.42;;
20729;SDS011;10526;50.850;12.928;2023-12-07T17:02:51;39.17;;;18.65;;
20729;SDS011;10526;50.850;12.928;2023-12-07T17:07:13;37.08;;;19.00;;
20729;SDS011;10526;50.850;12.928;2023-12-07T17:11:35;39.88;;;21.35;;
20729;SDS011;10526;50.850;12.928;2023-12-07T17:15:58;35.70;;;19.20;;
20729;SDS011;10526;50.850;12.928;2023-12-07T17:20:20;35.63;;;19.25;;
20729;SDS011;10526;50.850;12.928;2023-12-07T17:24:42;35.00;;;18.30;;
20729;SDS011;10526;50.850;12.928;2023-12-07T17:29:04;38.10;;;19.50;;
20729;SDS011;10526;50.850;12.928;2023-12-07T17:33:28;38.20;;;18.92;;
20729;SDS011;10526;50.850;12.928;2023-12-07T17:37:50;34.17;;;19.15;;
20729;SDS011;10526;50.850;12.928;2023-12-07T17:42:12;31.42;;;17.55;;
20729;SDS011;10526;50.850;12.928;2023-12-07T17:46:35;36.58;;;19.65;;
20729;SDS011;10526;50.850;12.928;2023-12-07T17:50:58;35.90;;;19.23;;
20729;SDS011;10526;50.850;12.928;2023-12-07T17:55:23;34.15;;;18.48;;
20729;SDS011;10526;50.850;12.928;2023-12-07T17:59:45;35.17;;;19.50;;
20729;SDS011;10526;50.850;12.928;2023-12-07T18:04:07;39.45;;;18.80;;
20729;SDS011;10526;50.850;12.928;2023-12-07T18:08:31;48.90;;;24.92;;
20729;SDS011;10526;50.850;12.928;2023-12-07T18:12:53;35.90;;;20.83;;
20729;SDS011;10526;50.850;12.928;2023-12-07T18:17:15;37.65;;;20.35;;
20729;SDS011;10526;50.850;12.928;2023-12-07T18:21:42;41.08;;;19.60;;
20729;SDS011;10526;50.850;12.928;2023-12-07T18:26:06;37.13;;;19.92;;
20729;SDS011;10526;50.850;12.928;2023-12-07T18:30:30;40.05;;;20.60;;
20729;SDS011;10526;50.850;12.928;2023-12-07T18:34:52;34.17;;;18.27;;
20729;SDS011;10526;50.850;12.928;2023-12-07T18:39:15;40.30;;;20.92;;
20729;SDS011;10526;50.850;12.928;2023-12-07T18:43:37;40.60;;;20.38;;
20729;SDS011;10526;50.850;12.928;2023-12-07T18:48:00;40.17;;;22.17;;
20729;SDS011;10526;50.850;12.928;2023-12-07T18:52:22;34.03;;;20.05;;
20729;SDS011;10526;50.850;12.928;2023-12-07T18:56:45;38.88;;;20.17;;
20729;SDS011;10526;50.850;12.928;2023-12-07T19:01:07;38.50;;;20.02;;
20729;SDS011;10526;50.850;12.928;2023-12-07T19:05:29;37.47;;;20.10;;
20729;SDS011;10526;50.850;12.928;2023-12-07T19:09:51;37.53;;;18.23;;
20729;SDS011;10526;50.850;12.928;2023-12-07T19:14:13;37.63;;;19.48;;
20729;SDS011;10526;50.850;12.928;2023-12-07T19:18:37;33.50;;;17.70;;
20729;SDS011;10526;50.850;12.928;2023-12-07T19:22:59;35.58;;;19.02;;
20729;SDS011;10526;50.850;12.928;2023-12-07T19:27:22;34.40;;;18.15;;
20729;SDS011;10526;50.850;12.928;2023-12-07T19:31:44;36.25;;;19.52;;
20729;SDS011;10526;50.850;12.928;2023-12-07T19:36:06;30.95;;;17.00;;
20729;SDS011;10526;50.850;12.928;2023-12-07T19:40:29;34.67;;;18.10;;
20729;SDS011;10526;50.850;12.928;2023-12-07T19:44:51;35.53;;;18.80;;
20729;SDS011;10526;50.850;12.928;2023-12-07T19:49:13;36.72;;;19.50;;
20729;SDS011;10526;50.850;12.928;2023-12-07T19:53:35;35.40;;;19.17;;
20729;SDS011;10526;50.850;12.928;2023-12-07T19:57:58;36.30;;;19.42;;
20729;SDS011;10526;50.850;12.928;2023-12-07T20:02:21;31.73;;;17.60;;
20729;SDS011;10526;50.850;12.928;2023-12-07T20:06:45;35.97;;;18.67;;
20729;SDS011;10526;50.850;12.928;2023-12-07T20:11:07;36.95;;;17.35;;
20729;SDS011;10526;50.850;12.928;2023-12-07T20:15:29;35.72;;;19.33;;
20729;SDS011;10526;50.850;12.928;2023-12-07T20:19:51;39.13;;;19.88;;
20729;SDS011;10526;50.850;12.928;2023-12-07T20:24:13;39.13;;;19.75;;
20729;SDS011;10526;50.850;12.928;2023-12-07T20:28:35;38.90;;;19.20;;
20729;SDS011;10526;50.850;12.928;2023-12-07T20:33:00;37.03;;;19.20;;
20729;SDS011;10526;50.850;12.928;2023-12-07T20:37:22;38.08;;;20.67;;
20729;SDS011;10526;50.850;12.928;2023-12-07T20:41:45;34.88;;;18.23;;
20729;SDS011;10526;50.850;12.928;2023-12-07T20:46:07;38.70;;;19.65;;
20729;SDS011;10526;50.850;12.928;2023-12-07T20:50:30;41.65;;;20.20;;
20729;SDS011;10526;50.850;12.928;2023-12-07T20:54:52;43.13;;;21.23;;
20729;SDS011;10526;50.850;12.928;2023-12-07T20:59:14;38.95;;;20.35;;
20729;SDS011;10526;50.850;12.928;2023-12-07T21:03:37;36.42;;;18.75;;
20729;SDS011;10526;50.850;12.928;2023-12-07T21:07:59;38.83;;;18.63;;
20729;SDS011;10526;50.850;12.928;2023-12-07T21:12:21;40.15;;;19.08;;
20729;SDS011;10526;50.850;12.928;2023-12-07T21:16:44;38.08;;;19.92;;
20729;SDS011;10526;50.850;12.928;2023-12-07T21:21:06;42.50;;;20.55;;
20729;SDS011;10526;50.850;12.928;2023-12-07T21:25:28;44.10;;;20.95;;
20729;SDS011;10526;50.850;12.928;2023-12-07T21:29:50;39.80;;;19.95;;
20729;SDS011;10526;50.850;12.928;2023-12-07T21:34:13;40.80;;;19.13;;
20729;SDS011;10526;50.850;12.928;2023-12-07T21:38:35;37.08;;;18.52;;
20729;SDS011;10526;50.850;12.928;2023-12-07T21:42:58;35.25;;;16.63;;
20729;SDS011;10526;50.850;12.928;2023-12-07T21:47:20;33.80;;;15.82;;
20729;SDS011;10526;50.850;12.928;2023-12-07T21:51:42;35.50;;;16.52;;
20729;SDS011;10526;50.850;12.928;2023-12-07T21:56:05;32.15;;;17.05;;
20729;SDS011;10526;50.850;12.928;2023-12-07T22:00:27;31.23;;;15.68;;
20729;SDS011;10526;50.850;12.928;2023-12-07T22:04:49;32.17;;;14.57;;
20729;SDS011;10526;50.850;12.928;2023-12-07T22:09:11;37.70;;;18.60;;
20729;SDS011;10526;50.850;12.928;2023-12-07T22:13:34;39.05;;;20.42;;
20729;SDS011;10526;50.850;12.928;2023-12-07T22:17:56;42.22;;;21.85;;
20729;SDS011;10526;50.850;12.928;2023-12-07T22:22:18;37.40;;;19.83;;
20729;SDS011;10526;50.850;12.928;2023-12-07T22:26:40;33.28;;;16.30;;
20729;SDS011;10526;50.850;12.928;2023-12-07T22:31:03;38.83;;;17.55;;
20729;SDS011;10526;50.850;12.928;2023-12-07T22:35:25;37.80;;;18.25;;
20729;SDS011;10526;50.850;12.928;2023-12-07T22:39:49;38.40;;;16.70;;
20729;SDS011;10526;50.850;12.928;2023-12-07T22:44:11;35.15;;;17.33;;
20729;SDS011;10526;50.850;12.928;2023-12-07T22:48:34;39.08;;;17.95;;
20729;SDS011;10526;50.850;12.928;2023-12-07T22:52:56;39.15;;;18.27;;
20729;SDS011;10526;50.850;12.928;2023-12-07T22:57:18;32.47;;;16.73;;
20729;SDS011;10526;50.850;12.928;2023-12-07T23:01:40;39.75;;;18.20;;
20729;SDS011;10526;50.850;12.928;2023-12-07T23:06:03;40.97;;;19.05;;
20729;SDS011;10526;50.850;12.928;2023-12-07T23:10:25;35.10;;;17.35;;
20729;SDS011;10526;50.850;12.928;2023-12-07T23:14:48;34.50;;;17.10;;
20729;SDS011;10526;50.850;12.928;2023-12-07T23:19:10;35.80;;;16.02;;
20729;SDS011;10526;50.850;12.928;2023-12-07T23:23:32;34.58;;;16.65;;
20729;SDS011;10526;50.850;12.928;2023-12-07T23:27:54;36.65;;;18.20;;
20729;SDS011;10526;50.850;12.928;2023-12-07T23:32:17;39.80;;;18.23;;
20729;SDS011;10526;50.850;12.928;2023-12-07T23:36:39;42.55;;;19.80;;
20729;SDS011;10526;50.850;12.928;2023-12-07T23:41:01;40.13;;;18.20;;
20729;SDS011;10526;50.850;12.928;2023-12-07T23:45:23;35.72;;;17.85;;
20729;SDS011;10526;50.850;12.928;2023-12-07T23:49:45;37.25;;;17.02;;
20729;SDS011;10526;50.850;12.928;2023-12-07T23:54:07;36.45;;;18.17;;
20729;SDS011;10526;50.850;12.928;2023-12-07T23:58:30;39.70;;;19.50;;
